createdAt,value
2022-10-11T04:17:54.490Z,100929.44
2022-10-11T04:20:57.473Z,100925.13
2022-10-11T04:24:00.093Z,100925.78
2022-10-11T04:27:02.794Z,100939.78
2022-10-11T04:30:05.715Z,100937.88
2022-10-11T04:33:08.719Z,100932.41
2022-10-11T04:36:11.265Z,100938.41
2022-10-11T04:39:14.043Z,100935.75
2022-10-11T04:42:16.593Z,100926.81
2022-10-11T04:45:20.658Z,100931.94
2022-10-11T04:48:23.062Z,100928.56
2022-10-11T04:51:25.905Z,100922.09
2022-10-11T04:54:28.316Z,100925.34
2022-10-11T04:57:31.059Z,100921.03
2022-10-11T05:00:33.513Z,100922.75
2022-10-11T05:03:36.816Z,100920.78
2022-10-11T05:06:39.351Z,100925.97
2022-10-11T05:09:42.021Z,100927.75
2022-10-11T05:12:44.482Z,100925.88
2022-10-11T05:15:47.204Z,100922.16
2022-10-11T05:18:50.031Z,100932.59
2022-10-11T05:21:52.795Z,100927.16
2022-10-11T05:24:55.176Z,100932.88
2022-10-11T05:27:57.813Z,100929.16
2022-10-11T05:31:00.475Z,100939.22
2022-10-11T05:34:03.238Z,100936.09
2022-10-11T05:37:05.731Z,100936.34
2022-10-11T05:40:11.996Z,100944.63
2022-10-11T05:43:14.920Z,100952.25
2022-10-11T05:46:17.617Z,100959.41
2022-10-11T05:49:19.962Z,100965.00
2022-10-11T05:52:22.700Z,100955.69
2022-10-11T05:55:25.214Z,100964.62
2022-10-11T05:58:28.270Z,100965.31
2022-10-11T06:01:33.025Z,100964.78
2022-10-11T06:04:37.057Z,100963.00
2022-10-11T06:07:39.727Z,100964.03
2022-10-11T06:10:42.527Z,100982.91
2022-10-11T06:13:45.084Z,100982.53
2022-10-11T06:16:47.823Z,100978.38
2022-10-11T06:19:51.332Z,100985.69
2022-10-11T06:26:32.047Z,100983.88
2022-10-11T06:29:35.662Z,100991.19
2022-10-11T06:36:16.847Z,100992.31
2022-10-11T06:39:19.541Z,100997.91
2022-10-11T06:42:21.962Z,100979.69
2022-10-11T06:45:24.707Z,100982.84
2022-10-11T06:55:38.203Z,100988.41
2022-10-11T07:02:25.781Z,101000.28
2022-10-11T07:05:37.143Z,100999.22
2022-10-11T07:08:40.497Z,101000.50
2022-10-11T07:11:43.213Z,101002.78
2022-10-11T07:14:45.664Z,101005.06
2022-10-11T07:17:48.404Z,101015.31
2022-10-11T07:20:50.944Z,101005.06
2022-10-11T07:23:53.650Z,101009.06
2022-10-11T07:26:56.056Z,101000.81
2022-10-11T07:29:58.882Z,101007.28
2022-10-11T07:33:01.259Z,100999.44
2022-10-11T07:36:05.102Z,101005.72
2022-10-11T07:39:08.948Z,101009.69
2022-10-11T07:42:11.655Z,101011.28
2022-10-11T07:45:14.194Z,101009.41
2022-10-11T07:48:17.097Z,101005.69
2022-10-11T07:51:22.493Z,101004.31
2022-10-11T07:54:25.257Z,101014.06
2022-10-11T07:57:27.788Z,101018.16
2022-10-11T08:00:30.586Z,101022.53
2022-10-11T08:03:33.517Z,101021.91
2022-10-11T08:06:36.610Z,101020.84
2022-10-11T08:09:39.269Z,101019.44
2022-10-11T08:12:41.787Z,101020.06
2022-10-11T08:15:44.467Z,101022.94
2022-10-11T08:18:47.448Z,101018.25
2022-10-11T08:21:50.230Z,101024.75
2022-10-11T08:24:52.651Z,101024.38
2022-10-11T08:27:55.749Z,101016.87
2022-10-11T08:30:59.764Z,101020.16
2022-10-11T08:34:02.833Z,101022.22
2022-10-11T08:37:05.543Z,101012.53
2022-10-11T08:40:15.072Z,101014.34
2022-10-11T08:43:44.582Z,101016.00
2022-10-11T08:47:00.295Z,101016.72
2022-10-11T08:50:06.127Z,101012.91
2022-10-11T08:53:25.284Z,101016.44
2022-10-11T08:56:31.064Z,101002.56
2022-10-11T08:59:41.554Z,101004.94
2022-10-11T09:03:08.609Z,100999.72
2022-10-11T09:06:24.231Z,101004.50
2022-10-11T09:09:44.705Z,101003.75
2022-10-11T09:13:13.889Z,101008.31
2022-10-11T09:16:26.157Z,101006.97
2022-10-11T09:19:41.110Z,101004.16
2022-10-11T09:22:52.780Z,101009.06
2022-10-11T09:26:03.268Z,101010.31
2022-10-11T09:29:20.250Z,101015.59
2022-10-11T09:32:29.359Z,101020.63
2022-10-11T09:35:37.029Z,101020.09
2022-10-11T09:38:48.367Z,101022.53
2022-10-11T09:45:28.866Z,101014.06
2022-10-11T09:48:41.334Z,101016.03
2022-10-11T09:51:55.653Z,101014.19
2022-10-11T09:55:00.912Z,101012.34
2022-10-11T09:58:06.169Z,101018.62
2022-10-11T10:01:11.632Z,101017.41
2022-10-11T10:04:20.001Z,101021.38
2022-10-11T10:07:23.216Z,101022.91
2022-10-11T10:10:59.629Z,101025.22
2022-10-11T10:14:02.241Z,101015.28
2022-10-11T10:17:17.086Z,101004.31
2022-10-11T10:20:25.770Z,101004.47
2022-10-11T10:23:35.029Z,101002.03
2022-10-11T10:26:37.531Z,100998.53
2022-10-11T10:29:41.966Z,100987.94
2022-10-11T10:33:04.771Z,100995.56
2022-10-11T10:36:18.733Z,100990.94
2022-10-11T10:39:24.132Z,100991.88
2022-10-11T10:42:27.561Z,100991.69
2022-10-11T10:45:46.090Z,100986.56
2022-10-11T10:52:42.793Z,100989.37
2022-10-11T10:55:51.981Z,100985.09
2022-10-11T10:59:12.450Z,100978.88
2022-10-11T11:02:40.088Z,100974.12
2022-10-11T11:06:09.952Z,100979.00
2022-10-11T11:09:17.147Z,100974.88
2022-10-11T11:12:50.408Z,100971.44
2022-10-11T11:16:00.211Z,100966.88
2022-10-11T11:19:27.835Z,100971.12
2022-10-11T11:22:44.399Z,100984.28
2022-10-11T11:26:00.134Z,100984.25
2022-10-11T11:32:45.946Z,100975.06
2022-10-11T11:35:53.480Z,100967.56
2022-10-11T11:39:00.018Z,100965.75
2022-10-11T11:42:11.831Z,100971.22
2022-10-11T11:45:33.640Z,100964.75
2022-10-11T11:48:37.392Z,100964.06
2022-10-11T11:51:44.187Z,100957.75
2022-10-11T11:55:13.195Z,100957.41
2022-10-11T11:58:59.603Z,100962.16
2022-10-11T12:02:24.269Z,100957.84
2022-10-11T12:05:32.217Z,100959.72
2022-10-11T12:08:36.404Z,100958.00
2022-10-11T12:15:32.133Z,100955.87
2022-10-11T12:18:41.899Z,100955.44
2022-10-11T12:21:45.128Z,100947.66
2022-10-11T12:25:00.077Z,100943.41
2022-10-11T12:28:37.377Z,100946.94
2022-10-11T12:31:45.164Z,100940.25
2022-10-11T12:38:39.954Z,100935.31
2022-10-11T12:41:51.579Z,100938.13
2022-10-11T12:45:24.173Z,100940.50
2022-10-11T12:48:39.917Z,100940.91
2022-10-11T12:52:02.723Z,100939.53
2022-10-11T12:55:24.335Z,100931.34
2022-10-11T12:58:40.551Z,100921.66
2022-10-11T13:01:52.733Z,100928.84
2022-10-11T13:05:08.130Z,100925.00
2022-10-11T13:08:27.100Z,100927.09
2022-10-11T13:11:38.874Z,100925.53
2022-10-11T13:15:07.096Z,100925.69
2022-10-11T13:18:14.642Z,100927.44
2022-10-11T13:21:36.260Z,100926.19
2022-10-11T13:24:40.211Z,100926.03
2022-10-11T13:27:43.865Z,100929.44
2022-10-11T13:30:54.694Z,100924.13
2022-10-11T13:33:59.301Z,100929.72
2022-10-11T13:37:01.818Z,100926.50
2022-10-11T13:40:05.596Z,100926.13
2022-10-11T13:43:08.171Z,100927.53
2022-10-11T13:46:20.174Z,100925.94
2022-10-11T13:49:27.154Z,100923.72
2022-10-11T13:52:29.946Z,100921.75
2022-10-11T13:55:47.525Z,100922.34
2022-10-11T13:58:53.138Z,100934.22
2022-10-11T14:02:01.240Z,100927.88
2022-10-11T14:05:04.293Z,100934.00
2022-10-11T14:08:42.169Z,100925.59
2022-10-11T14:11:45.795Z,100932.34
2022-10-11T14:14:48.239Z,100926.44
2022-10-11T14:17:51.537Z,100926.69
2022-10-11T14:20:54.328Z,100922.47
2022-10-11T14:23:58.781Z,100926.00
2022-10-11T14:27:05.746Z,100931.75
2022-10-11T14:30:31.855Z,100931.41
2022-10-11T14:33:37.424Z,100934.53
2022-10-11T14:36:40.296Z,100929.53
2022-10-11T14:39:43.429Z,100928.06
2022-10-11T14:42:46.617Z,100932.22
2022-10-11T14:45:49.074Z,100930.03
2022-10-11T14:48:56.711Z,100931.87
2022-10-11T14:51:59.666Z,100936.75
2022-10-11T14:55:02.343Z,100933.44
2022-10-11T14:58:05.949Z,100937.12
2022-10-11T15:01:14.033Z,100934.06
2022-10-11T15:04:16.622Z,100925.72
2022-10-11T15:07:19.467Z,100933.06
2022-10-11T15:10:23.953Z,100929.03
2022-10-11T15:13:26.623Z,100934.66
2022-10-11T15:16:29.048Z,100935.03
2022-10-11T15:19:31.743Z,100933.41
2022-10-11T15:22:34.304Z,100941.19
2022-10-11T15:25:38.516Z,100943.25
2022-10-11T15:28:42.079Z,100942.00
